sensor_id;sensor_type;location;lat;lon;timestamp;temperature;humidity
58447;DHT22;44240;51.840;7.258;2022-09-09T00:00:31;18.40;99.90
58447;DHT22;44240;51.840;7.258;2022-09-09T00:08:25;18.40;99.90
58447;DHT22;44240;51.840;7.258;2022-09-09T00:10:58;18.40;99.90
58447;DHT22;44240;51.840;7.258;2022-09-09T00:13:34;18.30;99.90
58447;DHT22;44240;51.840;7.258;2022-09-09T00:16:22;18.30;99.90
58447;DHT22;44240;51.840;7.258;2022-09-09T00:22:16;18.30;99.90
58447;DHT22;44240;51.840;7.258;2022-09-09T00:24:47;18.30;99.90
58447;DHT22;44240;51.840;7.258;2022-09-09T00:27:34;18.20;99.90
58447;DHT22;44240;51.840;7.258;2022-09-09T00:33:12;18.20;99.90
58447;DHT22;44240;51.840;7.258;2022-09-09T00:35:47;18.20;99.90
58447;DHT22;44240;51.840;7.258;2022-09-09T00:38:16;18.10;99.90
58447;DHT22;44240;51.840;7.258;2022-09-09T00:40:58;18.10;99.90
58447;DHT22;44240;51.840;7.258;2022-09-09T00:43:31;18.10;99.90
58447;DHT22;44240;51.840;7.258;2022-09-09T00:48:54;18.00;99.90
58447;DHT22;44240;51.840;7.258;2022-09-09T00:54:29;18.10;99.90
58447;DHT22;44240;51.840;7.258;2022-09-09T01:06:11;17.90;99.90
58447;DHT22;44240;51.840;7.258;2022-09-09T01:08:53;17.90;99.90
58447;DHT22;44240;51.840;7.258;2022-09-09T01:11:25;17.80;99.90
58447;DHT22;44240;51.840;7.258;2022-09-09T01:14:16;17.70;99.90
58447;DHT22;44240;51.840;7.258;2022-09-09T01:16:45;17.70;99.90
58447;DHT22;44240;51.840;7.258;2022-09-09T01:19:19;17.60;99.90
58447;DHT22;44240;51.840;7.258;2022-09-09T01:22:04;17.50;99.90
58447;DHT22;44240;51.840;7.258;2022-09-09T01:27:21;17.40;99.90
58447;DHT22;44240;51.840;7.258;2022-09-09T01:29:48;17.40;99.90
58447;DHT22;44240;51.840;7.258;2022-09-09T01:32:46;17.30;99.90
58447;DHT22;44240;51.840;7.258;2022-09-09T01:35:31;17.30;99.90
58447;DHT22;44240;51.840;7.258;2022-09-09T01:37:58;17.30;99.90
58447;DHT22;44240;51.840;7.258;2022-09-09T01:40:24;17.20;99.90
58447;DHT22;44240;51.840;7.258;2022-09-09T01:42:51;17.20;99.90
58447;DHT22;44240;51.840;7.258;2022-09-09T01:45:17;17.20;99.90
58447;DHT22;44240;51.840;7.258;2022-09-09T01:47:43;17.20;99.90
58447;DHT22;44240;51.840;7.258;2022-09-09T01:50:12;17.20;99.90
58447;DHT22;44240;51.840;7.258;2022-09-09T01:52:38;17.10;99.90
58447;DHT22;44240;51.840;7.258;2022-09-09T01:55:05;17.10;99.90
58447;DHT22;44240;51.840;7.258;2022-09-09T01:57:42;17.10;99.90
58447;DHT22;44240;51.840;7.258;2022-09-09T02:00:11;17.10;99.90
58447;DHT22;44240;51.840;7.258;2022-09-09T02:03:08;17.10;99.90
58447;DHT22;44240;51.840;7.258;2022-09-09T02:06:27;17.10;99.90
58447;DHT22;44240;51.840;7.258;2022-09-09T02:08:46;17.10;99.90
58447;DHT22;44240;51.840;7.258;2022-09-09T02:11:20;17.00;99.90
58447;DHT22;44240;51.840;7.258;2022-09-09T02:13:48;17.00;99.90
58447;DHT22;44240;51.840;7.258;2022-09-09T02:16:27;17.00;99.90
58447;DHT22;44240;51.840;7.258;2022-09-09T02:19:04;17.00;99.90
58447;DHT22;44240;51.840;7.258;2022-09-09T02:21:32;17.00;99.90
58447;DHT22;44240;51.840;7.258;2022-09-09T02:24:04;17.00;99.90
58447;DHT22;44240;51.840;7.258;2022-09-09T02:26:32;17.00;99.90
58447;DHT22;44240;51.840;7.258;2022-09-09T02:29:01;17.00;99.90
58447;DHT22;44240;51.840;7.258;2022-09-09T02:31:28;17.00;99.90
58447;DHT22;44240;51.840;7.258;2022-09-09T02:33:59;16.90;99.90
58447;DHT22;44240;51.840;7.258;2022-09-09T02:36:30;17.00;99.90
58447;DHT22;44240;51.840;7.258;2022-09-09T02:38:58;16.90;99.90
58447;DHT22;44240;51.840;7.258;2022-09-09T02:41:30;16.90;99.90
58447;DHT22;44240;51.840;7.258;2022-09-09T02:43:56;16.90;99.90
58447;DHT22;44240;51.840;7.258;2022-09-09T02:49:03;16.90;99.90
58447;DHT22;44240;51.840;7.258;2022-09-09T02:51:35;16.90;99.90
58447;DHT22;44240;51.840;7.258;2022-09-09T02:54:16;16.90;99.90
58447;DHT22;44240;51.840;7.258;2022-09-09T02:56:47;16.90;99.90
58447;DHT22;44240;51.840;7.258;2022-09-09T02:59:16;16.90;99.90
58447;DHT22;44240;51.840;7.258;2022-09-09T03:01:41;16.80;99.90
58447;DHT22;44240;51.840;7.258;2022-09-09T03:04:07;16.90;99.90
58447;DHT22;44240;51.840;7.258;2022-09-09T03:06:33;16.90;99.90
58447;DHT22;44240;51.840;7.258;2022-09-09T03:08:58;16.80;99.90
58447;DHT22;44240;51.840;7.258;2022-09-09T03:11:27;16.90;99.90
58447;DHT22;44240;51.840;7.258;2022-09-09T03:13:53;16.90;99.90
58447;DHT22;44240;51.840;7.258;2022-09-09T03:16:24;16.90;99.90
58447;DHT22;44240;51.840;7.258;2022-09-09T03:18:50;16.90;99.90
58447;DHT22;44240;51.840;7.258;2022-09-09T03:21:16;16.90;99.90
58447;DHT22;44240;51.840;7.258;2022-09-09T03:23:42;16.90;99.90
58447;DHT22;44240;51.840;7.258;2022-09-09T03:26:07;17.00;99.90
58447;DHT22;44240;51.840;7.258;2022-09-09T03:28:33;16.90;99.90
58447;DHT22;44240;51.840;7.258;2022-09-09T03:31:04;16.90;99.90
58447;DHT22;44240;51.840;7.258;2022-09-09T03:33:30;17.00;99.90
58447;DHT22;44240;51.840;7.258;2022-09-09T03:35:57;17.00;99.90
58447;DHT22;44240;51.840;7.258;2022-09-09T03:38:25;17.00;99.90
58447;DHT22;44240;51.840;7.258;2022-09-09T03:40:52;17.00;99.90
58447;DHT22;44240;51.840;7.258;2022-09-09T03:43:23;17.00;99.90
58447;DHT22;44240;51.840;7.258;2022-09-09T03:45:49;17.00;99.90
58447;DHT22;44240;51.840;7.258;2022-09-09T03:48:16;17.00;99.90
58447;DHT22;44240;51.840;7.258;2022-09-09T03:50:49;17.00;99.90
58447;DHT22;44240;51.840;7.258;2022-09-09T03:53:16;16.90;99.90
58447;DHT22;44240;51.840;7.258;2022-09-09T03:55:50;16.90;99.90
58447;DHT22;44240;51.840;7.258;2022-09-09T03:58:18;16.90;99.90
58447;DHT22;44240;51.840;7.258;2022-09-09T04:00:59;16.80;99.90
58447;DHT22;44240;51.840;7.258;2022-09-09T04:03:25;16.80;99.90
58447;DHT22;44240;51.840;7.258;2022-09-09T04:05:52;16.80;99.90
58447;DHT22;44240;51.840;7.258;2022-09-09T04:08:19;16.80;99.90
58447;DHT22;44240;51.840;7.258;2022-09-09T04:10:49;16.80;99.90
58447;DHT22;44240;51.840;7.258;2022-09-09T04:13:15;16.80;99.90
58447;DHT22;44240;51.840;7.258;2022-09-09T04:15:41;16.80;99.90
58447;DHT22;44240;51.840;7.258;2022-09-09T04:18:07;16.70;99.90
58447;DHT22;44240;51.840;7.258;2022-09-09T04:20:33;16.70;99.90
58447;DHT22;44240;51.840;7.258;2022-09-09T04:22:58;16.70;99.90
58447;DHT22;44240;51.840;7.258;2022-09-09T04:25:24;16.70;99.90
58447;DHT22;44240;51.840;7.258;2022-09-09T04:27:54;16.70;99.90
58447;DHT22;44240;51.840;7.258;2022-09-09T04:30:20;16.60;99.90
58447;DHT22;44240;51.840;7.258;2022-09-09T04:32:46;16.60;99.90
58447;DHT22;44240;51.840;7.258;2022-09-09T04:35:11;16.60;99.90
58447;DHT22;44240;51.840;7.258;2022-09-09T04:37:37;16.60;99.90
58447;DHT22;44240;51.840;7.258;2022-09-09T04:40:03;16.60;99.90
58447;DHT22;44240;51.840;7.258;2022-09-09T04:42:28;16.60;99.90
58447;DHT22;44240;51.840;7.258;2022-09-09T04:44:54;16.60;99.90
58447;DHT22;44240;51.840;7.258;2022-09-09T04:47:19;16.60;99.90
58447;DHT22;44240;51.840;7.258;2022-09-09T04:49:45;16.60;99.90
58447;DHT22;44240;51.840;7.258;2022-09-09T04:52:10;16.70;99.90
58447;DHT22;44240;51.840;7.258;2022-09-09T04:54:36;16.70;99.90
58447;DHT22;44240;51.840;7.258;2022-09-09T04:57:02;16.70;99.90
58447;DHT22;44240;51.840;7.258;2022-09-09T04:59:28;16.70;99.90
58447;DHT22;44240;51.840;7.258;2022-09-09T05:01:53;16.70;99.90
58447;DHT22;44240;51.840;7.258;2022-09-09T05:04:20;16.70;99.90
58447;DHT22;44240;51.840;7.258;2022-09-09T05:06:46;16.70;99.90
58447;DHT22;44240;51.840;7.258;2022-09-09T05:09:11;16.70;99.90
58447;DHT22;44240;51.840;7.258;2022-09-09T05:11:37;16.70;99.90
58447;DHT22;44240;51.840;7.258;2022-09-09T05:14:04;16.80;99.90
58447;DHT22;44240;51.840;7.258;2022-09-09T05:16:30;16.80;99.90
58447;DHT22;44240;51.840;7.258;2022-09-09T05:18:56;16.80;99.90
58447;DHT22;44240;51.840;7.258;2022-09-09T05:21:23;16.80;99.90
58447;DHT22;44240;51.840;7.258;2022-09-09T05:23:50;16.80;99.90
58447;DHT22;44240;51.840;7.258;2022-09-09T05:26:20;16.90;99.90
58447;DHT22;44240;51.840;7.258;2022-09-09T05:28:46;16.90;99.90
58447;DHT22;44240;51.840;7.258;2022-09-09T05:31:12;16.90;99.90
58447;DHT22;44240;51.840;7.258;2022-09-09T05:33:39;16.90;99.90
58447;DHT22;44240;51.840;7.258;2022-09-09T05:36:10;16.90;99.90
58447;DHT22;44240;51.840;7.258;2022-09-09T05:38:39;17.00;99.90
58447;DHT22;44240;51.840;7.258;2022-09-09T05:41:06;16.90;99.90
58447;DHT22;44240;51.840;7.258;2022-09-09T05:43:32;17.00;99.90
58447;DHT22;44240;51.840;7.258;2022-09-09T05:48:29;17.00;99.90
58447;DHT22;44240;51.840;7.258;2022-09-09T05:50:55;17.00;99.90
58447;DHT22;44240;51.840;7.258;2022-09-09T05:53:20;17.00;99.90
58447;DHT22;44240;51.840;7.258;2022-09-09T05:55:46;17.10;99.90
58447;DHT22;44240;51.840;7.258;2022-09-09T05:58:13;17.10;99.90
58447;DHT22;44240;51.840;7.258;2022-09-09T06:00:39;17.10;99.90
58447;DHT22;44240;51.840;7.258;2022-09-09T06:03:05;17.20;99.90
58447;DHT22;44240;51.840;7.258;2022-09-09T06:05:30;17.20;99.90
58447;DHT22;44240;51.840;7.258;2022-09-09T06:07:56;17.20;99.90
58447;DHT22;44240;51.840;7.258;2022-09-09T06:10:22;17.20;99.90
58447;DHT22;44240;51.840;7.258;2022-09-09T06:12:47;17.30;99.90
58447;DHT22;44240;51.840;7.258;2022-09-09T06:15:13;17.30;99.90
58447;DHT22;44240;51.840;7.258;2022-09-09T06:17:38;17.30;99.90
58447;DHT22;44240;51.840;7.258;2022-09-09T06:20:04;17.30;99.90
58447;DHT22;44240;51.840;7.258;2022-09-09T06:22:30;17.40;99.90
58447;DHT22;44240;51.840;7.258;2022-09-09T06:24:56;17.40;99.90
58447;DHT22;44240;51.840;7.258;2022-09-09T06:27:21;17.50;99.90
58447;DHT22;44240;51.840;7.258;2022-09-09T06:29:47;17.50;99.90
58447;DHT22;44240;51.840;7.258;2022-09-09T06:32:13;17.50;99.90
58447;DHT22;44240;51.840;7.258;2022-09-09T06:34:39;17.60;99.90
58447;DHT22;44240;51.840;7.258;2022-09-09T06:37:05;17.60;99.90
58447;DHT22;44240;51.840;7.258;2022-09-09T06:39:31;17.70;99.90
58447;DHT22;44240;51.840;7.258;2022-09-09T06:41:57;17.60;99.90
58447;DHT22;44240;51.840;7.258;2022-09-09T06:44:23;17.70;99.90
58447;DHT22;44240;51.840;7.258;2022-09-09T06:46:51;17.70;99.90
58447;DHT22;44240;51.840;7.258;2022-09-09T06:49:17;17.70;99.90
58447;DHT22;44240;51.840;7.258;2022-09-09T06:51:43;17.70;99.90
58447;DHT22;44240;51.840;7.258;2022-09-09T06:54:09;17.70;99.90
58447;DHT22;44240;51.840;7.258;2022-09-09T06:56:37;17.80;99.90
58447;DHT22;44240;51.840;7.258;2022-09-09T06:59:06;17.80;99.90
58447;DHT22;44240;51.840;7.258;2022-09-09T07:01:36;17.80;99.90
58447;DHT22;44240;51.840;7.258;2022-09-09T07:04:04;17.80;99.90
58447;DHT22;44240;51.840;7.258;2022-09-09T07:06:34;17.90;99.90
58447;DHT22;44240;51.840;7.258;2022-09-09T07:09:03;18.00;99.90
58447;DHT22;44240;51.840;7.258;2022-09-09T07:11:31;18.10;99.90
58447;DHT22;44240;51.840;7.258;2022-09-09T07:13:58;18.20;99.90
58447;DHT22;44240;51.840;7.258;2022-09-09T07:16:25;18.20;99.90
58447;DHT22;44240;51.840;7.258;2022-09-09T07:18:51;18.30;99.90
58447;DHT22;44240;51.840;7.258;2022-09-09T07:21:18;18.30;99.90
58447;DHT22;44240;51.840;7.258;2022-09-09T07:23:44;18.40;99.90
58447;DHT22;44240;51.840;7.258;2022-09-09T07:26:11;18.40;99.90
58447;DHT22;44240;51.840;7.258;2022-09-09T07:28:38;18.40;99.90
58447;DHT22;44240;51.840;7.258;2022-09-09T07:31:04;18.50;99.90
58447;DHT22;44240;51.840;7.258;2022-09-09T07:33:32;18.50;99.90
58447;DHT22;44240;51.840;7.258;2022-09-09T07:36:07;18.50;99.90
58447;DHT22;44240;51.840;7.258;2022-09-09T07:38:45;18.50;99.90
58447;DHT22;44240;51.840;7.258;2022-09-09T07:41:13;18.50;99.90
58447;DHT22;44240;51.840;7.258;2022-09-09T07:43:41;18.50;99.90
58447;DHT22;44240;51.840;7.258;2022-09-09T07:46:08;18.50;99.90
58447;DHT22;44240;51.840;7.258;2022-09-09T07:48:34;18.70;99.90
58447;DHT22;44240;51.840;7.258;2022-09-09T07:51:12;18.70;99.90
58447;DHT22;44240;51.840;7.258;2022-09-09T07:53:42;18.80;99.90
58447;DHT22;44240;51.840;7.258;2022-09-09T07:56:13;18.90;99.90
58447;DHT22;44240;51.840;7.258;2022-09-09T07:58:40;18.90;99.90
58447;DHT22;44240;51.840;7.258;2022-09-09T08:01:10;19.10;99.90
58447;DHT22;44240;51.840;7.258;2022-09-09T08:03:37;19.20;99.90
58447;DHT22;44240;51.840;7.258;2022-09-09T08:06:05;19.40;99.90
58447;DHT22;44240;51.840;7.258;2022-09-09T08:08:31;19.50;99.90
58447;DHT22;44240;51.840;7.258;2022-09-09T08:11:09;19.60;99.90
58447;DHT22;44240;51.840;7.258;2022-09-09T08:13:36;19.70;99.90
58447;DHT22;44240;51.840;7.258;2022-09-09T08:18:35;19.60;99.90
58447;DHT22;44240;51.840;7.258;2022-09-09T08:21:10;19.60;99.90
58447;DHT22;44240;51.840;7.258;2022-09-09T08:23:38;19.60;99.90
58447;DHT22;44240;51.840;7.258;2022-09-09T08:26:06;19.60;99.90
58447;DHT22;44240;51.840;7.258;2022-09-09T08:28:34;19.50;99.90
58447;DHT22;44240;51.840;7.258;2022-09-09T08:31:15;19.40;99.90
58447;DHT22;44240;51.840;7.258;2022-09-09T08:33:42;19.40;99.90
58447;DHT22;44240;51.840;7.258;2022-09-09T08:36:12;19.30;99.90
58447;DHT22;44240;51.840;7.258;2022-09-09T08:38:38;19.30;99.90
58447;DHT22;44240;51.840;7.258;2022-09-09T08:49:48;19.90;99.90
58447;DHT22;44240;51.840;7.258;2022-09-09T08:55:01;19.90;99.90
58447;DHT22;44240;51.840;7.258;2022-09-09T08:57:29;19.90;99.90
58447;DHT22;44240;51.840;7.258;2022-09-09T08:59:56;20.00;99.80
58447;DHT22;44240;51.840;7.258;2022-09-09T09:02:46;20.00;99.20
58447;DHT22;44240;51.840;7.258;2022-09-09T09:05:23;20.00;99.50
58447;DHT22;44240;51.840;7.258;2022-09-09T09:10:47;19.90;98.40
58447;DHT22;44240;51.840;7.258;2022-09-09T09:15:58;19.90;97.50
58447;DHT22;44240;51.840;7.258;2022-09-09T09:18:26;19.90;97.40
58447;DHT22;44240;51.840;7.258;2022-09-09T09:21:16;20.00;96.90
58447;DHT22;44240;51.840;7.258;2022-09-09T09:24:14;20.20;96.70
58447;DHT22;44240;51.840;7.258;2022-09-09T09:26:43;20.20;95.40
58447;DHT22;44240;51.840;7.258;2022-09-09T09:29:15;20.20;95.80
58447;DHT22;44240;51.840;7.258;2022-09-09T09:31:56;20.30;95.40
58447;DHT22;44240;51.840;7.258;2022-09-09T09:34:24;20.50;95.10
58447;DHT22;44240;51.840;7.258;2022-09-09T09:36:57;20.60;94.90
58447;DHT22;44240;51.840;7.258;2022-09-09T09:39:31;20.60;94.50
58447;DHT22;44240;51.840;7.258;2022-09-09T09:42:10;20.70;94.60
58447;DHT22;44240;51.840;7.258;2022-09-09T09:44:39;20.70;94.50
58447;DHT22;44240;51.840;7.258;2022-09-09T09:47:13;20.90;94.60
58447;DHT22;44240;51.840;7.258;2022-09-09T09:49:54;21.10;94.40
58447;DHT22;44240;51.840;7.258;2022-09-09T09:52:23;21.20;93.70
58447;DHT22;44240;51.840;7.258;2022-09-09T09:54:49;21.30;93.20
58447;DHT22;44240;51.840;7.258;2022-09-09T09:57:16;21.40;93.00
58447;DHT22;44240;51.840;7.258;2022-09-09T09:59:43;21.50;93.00
58447;DHT22;44240;51.840;7.258;2022-09-09T10:02:19;21.60;92.50
58447;DHT22;44240;51.840;7.258;2022-09-09T10:04:45;21.60;92.20
58447;DHT22;44240;51.840;7.258;2022-09-09T10:07:15;21.60;91.40
58447;DHT22;44240;51.840;7.258;2022-09-09T10:09:42;21.60;91.40
58447;DHT22;44240;51.840;7.258;2022-09-09T10:15:32;21.60;91.40
58447;DHT22;44240;51.840;7.258;2022-09-09T10:18:20;21.60;91.70
58447;DHT22;44240;51.840;7.258;2022-09-09T10:20:54;21.70;91.40
58447;DHT22;44240;51.840;7.258;2022-09-09T10:29:01;21.60;91.60
58447;DHT22;44240;51.840;7.258;2022-09-09T10:32:10;21.60;90.60
58447;DHT22;44240;51.840;7.258;2022-09-09T10:37:58;21.40;90.30
58447;DHT22;44240;51.840;7.258;2022-09-09T10:40:38;21.40;90.40
58447;DHT22;44240;51.840;7.258;2022-09-09T10:49:09;21.50;90.50
58447;DHT22;44240;51.840;7.258;2022-09-09T10:51:46;21.50;90.20
58447;DHT22;44240;51.840;7.258;2022-09-09T10:54:35;21.60;90.30
58447;DHT22;44240;51.840;7.258;2022-09-09T10:57:11;21.60;90.00
58447;DHT22;44240;51.840;7.258;2022-09-09T10:59:44;21.60;89.20
58447;DHT22;44240;51.840;7.258;2022-09-09T11:02:17;21.60;88.80
58447;DHT22;44240;51.840;7.258;2022-09-09T11:04:49;21.50;88.80
58447;DHT22;44240;51.840;7.258;2022-09-09T11:07:28;21.50;89.10
58447;DHT22;44240;51.840;7.258;2022-09-09T11:10:01;21.50;89.70
58447;DHT22;44240;51.840;7.258;2022-09-09T11:12:30;21.60;89.70
58447;DHT22;44240;51.840;7.258;2022-09-09T11:15:12;21.60;89.70
58447;DHT22;44240;51.840;7.258;2022-09-09T11:17:46;21.60;88.60
58447;DHT22;44240;51.840;7.258;2022-09-09T11:20:14;21.60;89.00
58447;DHT22;44240;51.840;7.258;2022-09-09T11:25:31;21.60;89.70
58447;DHT22;44240;51.840;7.258;2022-09-09T11:38:50;21.80;87.00
58447;DHT22;44240;51.840;7.258;2022-09-09T11:41:17;21.80;86.50
58447;DHT22;44240;51.840;7.258;2022-09-09T11:43:50;21.90;87.30
58447;DHT22;44240;51.840;7.258;2022-09-09T11:46:33;21.80;86.10
58447;DHT22;44240;51.840;7.258;2022-09-09T11:49:01;21.80;85.40
58447;DHT22;44240;51.840;7.258;2022-09-09T11:51:30;21.80;85.00
58447;DHT22;44240;51.840;7.258;2022-09-09T11:56:51;21.80;86.20
58447;DHT22;44240;51.840;7.258;2022-09-09T11:59:32;21.90;86.50
58447;DHT22;44240;51.840;7.258;2022-09-09T12:02:00;22.10;86.80
58447;DHT22;44240;51.840;7.258;2022-09-09T12:05:01;22.10;84.80
58447;DHT22;44240;51.840;7.258;2022-09-09T12:07:52;22.10;84.90
58447;DHT22;44240;51.840;7.258;2022-09-09T12:10:30;22.20;85.10
58447;DHT22;44240;51.840;7.258;2022-09-09T12:13:24;22.20;85.70
58447;DHT22;44240;51.840;7.258;2022-09-09T12:15:52;22.20;85.30
58447;DHT22;44240;51.840;7.258;2022-09-09T12:18:33;22.20;85.40
58447;DHT22;44240;51.840;7.258;2022-09-09T12:21:25;22.30;83.80
58447;DHT22;44240;51.840;7.258;2022-09-09T12:24:13;22.20;83.80
58447;DHT22;44240;51.840;7.258;2022-09-09T12:32:10;22.10;85.90
58447;DHT22;44240;51.840;7.258;2022-09-09T12:37:34;22.20;86.40
58447;DHT22;44240;51.840;7.258;2022-09-09T12:42:46;22.20;85.90
58447;DHT22;44240;51.840;7.258;2022-09-09T12:45:20;22.30;86.20
58447;DHT22;44240;51.840;7.258;2022-09-09T12:47:51;22.50;86.20
58447;DHT22;44240;51.840;7.258;2022-09-09T12:50:25;22.50;85.40
58447;DHT22;44240;51.840;7.258;2022-09-09T12:52:56;22.50;84.50
58447;DHT22;44240;51.840;7.258;2022-09-09T12:55:36;22.50;85.10
58447;DHT22;44240;51.840;7.258;2022-09-09T12:58:03;22.50;85.20
58447;DHT22;44240;51.840;7.258;2022-09-09T13:00:32;22.30;85.30
58447;DHT22;44240;51.840;7.258;2022-09-09T13:03:13;22.20;87.20
58447;DHT22;44240;51.840;7.258;2022-09-09T13:05:39;21.90;90.00
58447;DHT22;44240;51.840;7.258;2022-09-09T13:08:08;21.70;90.80
58447;DHT22;44240;51.840;7.258;2022-09-09T13:10:51;21.60;91.50
58447;DHT22;44240;51.840;7.258;2022-09-09T13:13:33;21.60;92.20
58447;DHT22;44240;51.840;7.258;2022-09-09T13:16:01;21.60;92.70
58447;DHT22;44240;51.840;7.258;2022-09-09T13:18:30;21.60;93.00
58447;DHT22;44240;51.840;7.258;2022-09-09T13:20:57;21.60;93.30
58447;DHT22;44240;51.840;7.258;2022-09-09T13:23:26;21.70;93.50
58447;DHT22;44240;51.840;7.258;2022-09-09T13:26:00;21.70;93.60
58447;DHT22;44240;51.840;7.258;2022-09-09T13:28:29;21.60;93.60
58447;DHT22;44240;51.840;7.258;2022-09-09T13:31:01;21.50;93.80
58447;DHT22;44240;51.840;7.258;2022-09-09T13:33:38;21.40;94.10
58447;DHT22;44240;51.840;7.258;2022-09-09T13:36:06;21.30;94.40
58447;DHT22;44240;51.840;7.258;2022-09-09T13:41:20;21.30;94.80
58447;DHT22;44240;51.840;7.258;2022-09-09T13:43:47;21.20;95.10
58447;DHT22;44240;51.840;7.258;2022-09-09T13:46:36;21.10;95.70
58447;DHT22;44240;51.840;7.258;2022-09-09T13:51:40;20.80;96.10
58447;DHT22;44240;51.840;7.258;2022-09-09T13:54:10;20.70;96.20
58447;DHT22;44240;51.840;7.258;2022-09-09T13:56:37;20.60;96.30
58447;DHT22;44240;51.840;7.258;2022-09-09T13:59:06;20.60;96.40
58447;DHT22;44240;51.840;7.258;2022-09-09T14:01:31;20.60;96.50
58447;DHT22;44240;51.840;7.258;2022-09-09T14:04:00;20.60;96.70
58447;DHT22;44240;51.840;7.258;2022-09-09T14:06:25;20.60;96.80
58447;DHT22;44240;51.840;7.258;2022-09-09T14:08:51;20.60;97.10
58447;DHT22;44240;51.840;7.258;2022-09-09T14:11:18;20.60;97.30
58447;DHT22;44240;51.840;7.258;2022-09-09T14:13:44;20.60;97.50
58447;DHT22;44240;51.840;7.258;2022-09-09T14:16:09;20.70;97.80
58447;DHT22;44240;51.840;7.258;2022-09-09T14:18:35;20.70;97.90
58447;DHT22;44240;51.840;7.258;2022-09-09T14:21:00;20.60;98.00
58447;DHT22;44240;51.840;7.258;2022-09-09T14:23:28;20.60;98.00
58447;DHT22;44240;51.840;7.258;2022-09-09T14:25:55;20.60;98.20
58447;DHT22;44240;51.840;7.258;2022-09-09T14:28:21;20.60;98.40
58447;DHT22;44240;51.840;7.258;2022-09-09T14:30:46;20.70;98.90
58447;DHT22;44240;51.840;7.258;2022-09-09T14:33:14;20.90;98.90
58447;DHT22;44240;51.840;7.258;2022-09-09T14:35:40;21.10;98.80
58447;DHT22;44240;51.840;7.258;2022-09-09T14:38:06;21.30;98.90
58447;DHT22;44240;51.840;7.258;2022-09-09T14:40:34;21.60;98.80
58447;DHT22;44240;51.840;7.258;2022-09-09T14:43:00;21.70;98.70
58447;DHT22;44240;51.840;7.258;2022-09-09T14:45:25;21.80;98.40
58447;DHT22;44240;51.840;7.258;2022-09-09T14:47:52;21.80;98.00
58447;DHT22;44240;51.840;7.258;2022-09-09T14:50:18;21.90;98.00
58447;DHT22;44240;51.840;7.258;2022-09-09T14:52:44;22.00;98.00
58447;DHT22;44240;51.840;7.258;2022-09-09T14:55:10;21.90;97.50
58447;DHT22;44240;51.840;7.258;2022-09-09T14:57:36;21.90;97.50
58447;DHT22;44240;51.840;7.258;2022-09-09T15:00:06;21.80;97.60
58447;DHT22;44240;51.840;7.258;2022-09-09T15:02:32;21.80;97.50
58447;DHT22;44240;51.840;7.258;2022-09-09T15:04:58;21.70;97.50
58447;DHT22;44240;51.840;7.258;2022-09-09T15:07:24;21.70;97.40
58447;DHT22;44240;51.840;7.258;2022-09-09T15:09:50;21.60;97.20
58447;DHT22;44240;51.840;7.258;2022-09-09T15:12:16;21.60;97.20
58447;DHT22;44240;51.840;7.258;2022-09-09T15:14:44;21.50;97.20
58447;DHT22;44240;51.840;7.258;2022-09-09T15:17:10;21.30;97.20
58447;DHT22;44240;51.840;7.258;2022-09-09T15:19:36;21.30;97.10
58447;DHT22;44240;51.840;7.258;2022-09-09T15:22:02;21.20;97.20
58447;DHT22;44240;51.840;7.258;2022-09-09T15:24:28;21.10;97.10
58447;DHT22;44240;51.840;7.258;2022-09-09T15:26:54;21.00;97.10
58447;DHT22;44240;51.840;7.258;2022-09-09T15:29:19;20.90;97.30
58447;DHT22;44240;51.840;7.258;2022-09-09T15:31:45;20.90;97.60
58447;DHT22;44240;51.840;7.258;2022-09-09T15:34:11;20.80;97.60
58447;DHT22;44240;51.840;7.258;2022-09-09T15:36:45;20.80;97.50
58447;DHT22;44240;51.840;7.258;2022-09-09T15:39:13;20.70;97.70
58447;DHT22;44240;51.840;7.258;2022-09-09T15:41:41;20.70;97.80
58447;DHT22;44240;51.840;7.258;2022-09-09T15:44:08;20.60;97.90
58447;DHT22;44240;51.840;7.258;2022-09-09T15:46:41;20.60;98.00
58447;DHT22;44240;51.840;7.258;2022-09-09T15:49:22;20.50;98.30
58447;DHT22;44240;51.840;7.258;2022-09-09T15:51:56;20.40;98.60
58447;DHT22;44240;51.840;7.258;2022-09-09T15:54:23;20.30;98.90
58447;DHT22;44240;51.840;7.258;2022-09-09T15:56:54;20.10;99.20
58447;DHT22;44240;51.840;7.258;2022-09-09T15:59:24;20.00;99.50
58447;DHT22;44240;51.840;7.258;2022-09-09T16:01:50;19.90;99.80
58447;DHT22;44240;51.840;7.258;2022-09-09T16:04:17;19.80;99.90
58447;DHT22;44240;51.840;7.258;2022-09-09T16:06:49;19.70;99.90
58447;DHT22;44240;51.840;7.258;2022-09-09T16:09:15;19.70;99.90
58447;DHT22;44240;51.840;7.258;2022-09-09T16:11:40;19.60;99.90
58447;DHT22;44240;51.840;7.258;2022-09-09T16:14:06;19.50;99.90
58447;DHT22;44240;51.840;7.258;2022-09-09T16:16:33;19.50;99.90
58447;DHT22;44240;51.840;7.258;2022-09-09T16:19:03;19.50;99.90
58447;DHT22;44240;51.840;7.258;2022-09-09T16:21:40;19.40;99.90
58447;DHT22;44240;51.840;7.258;2022-09-09T16:24:08;19.40;99.90
58447;DHT22;44240;51.840;7.258;2022-09-09T16:26:36;19.40;99.90
58447;DHT22;44240;51.840;7.258;2022-09-09T16:29:02;19.50;99.90
58447;DHT22;44240;51.840;7.258;2022-09-09T16:31:29;19.40;99.90
58447;DHT22;44240;51.840;7.258;2022-09-09T16:33:54;19.40;99.90
58447;DHT22;44240;51.840;7.258;2022-09-09T16:36:31;19.40;99.90
58447;DHT22;44240;51.840;7.258;2022-09-09T16:39:22;19.40;99.90
58447;DHT22;44240;51.840;7.258;2022-09-09T16:41:48;19.40;99.90
58447;DHT22;44240;51.840;7.258;2022-09-09T16:44:15;19.40;99.90
58447;DHT22;44240;51.840;7.258;2022-09-09T16:46:43;19.40;99.90
58447;DHT22;44240;51.840;7.258;2022-09-09T16:49:11;19.40;99.90
58447;DHT22;44240;51.840;7.258;2022-09-09T16:51:39;19.50;99.90
58447;DHT22;44240;51.840;7.258;2022-09-09T16:54:06;19.50;99.90
58447;DHT22;44240;51.840;7.258;2022-09-09T16:56:34;19.50;99.90
58447;DHT22;44240;51.840;7.258;2022-09-09T16:59:04;19.50;99.90
58447;DHT22;44240;51.840;7.258;2022-09-09T17:01:35;19.50;99.90
58447;DHT22;44240;51.840;7.258;2022-09-09T17:04:04;19.50;99.90
58447;DHT22;44240;51.840;7.258;2022-09-09T17:06:32;19.50;99.90
58447;DHT22;44240;51.840;7.258;2022-09-09T17:09:02;19.50;99.90
58447;DHT22;44240;51.840;7.258;2022-09-09T17:11:29;19.40;99.90
58447;DHT22;44240;51.840;7.258;2022-09-09T17:13:56;19.40;99.90
58447;DHT22;44240;51.840;7.258;2022-09-09T17:16:24;19.30;99.90
58447;DHT22;44240;51.840;7.258;2022-09-09T17:18:50;19.30;99.90
58447;DHT22;44240;51.840;7.258;2022-09-09T17:21:19;19.20;99.90
58447;DHT22;44240;51.840;7.258;2022-09-09T17:23:45;19.20;99.90
58447;DHT22;44240;51.840;7.258;2022-09-09T17:26:14;19.10;99.90
58447;DHT22;44240;51.840;7.258;2022-09-09T17:28:41;19.00;99.90
58447;DHT22;44240;51.840;7.258;2022-09-09T17:31:09;19.00;99.90
58447;DHT22;44240;51.840;7.258;2022-09-09T17:33:37;19.00;99.90